Time;durP1;ratioP1;P1;durP2;ratioP2;P2;SDS_P1;SDS_P2;PMS_P1;PMS_P2;Temp;Humidity;BMP_temperature;BMP_pressure;BME280_temperature;BME280_humidity;BME280_pressure;Samples;Min_cycle;Max_cycle;Signal;HPM_P1;HPM_P2
2022/10/23 00:02:19;;;;;;;2.05;1.85;;;10.80;99.90;;;;;;5050188;28;20206;-69
2022/10/23 00:04:46;;;;;;;2.30;2.10;;;10.80;99.90;;;;;;5050165;28;20224;-69
2022/10/23 00:07:13;;;;;;;2.15;1.95;;;10.80;99.90;;;;;;5050399;28;20201;-69
2022/10/23 00:09:40;;;;;;;2.50;2.30;;;10.70;99.90;;;;;;5050289;28;20208;-69
2022/10/23 00:12:07;;;;;;;3.30;2.35;;;10.70;99.90;;;;;;5049651;28;20205;-69
2022/10/23 00:14:35;;;;;;;2.22;2.00;;;10.70;99.90;;;;;;5050225;28;20229;-69
2022/10/23 00:17:02;;;;;;;2.65;1.90;;;10.70;99.90;;;;;;5050104;28;20609;-69
2022/10/23 00:19:29;;;;;;;2.65;1.77;;;10.70;99.90;;;;;;5050123;28;20202;-69
2022/10/23 00:21:55;;;;;;;1.80;1.70;;;10.70;99.90;;;;;;5049519;28;20583;-69
2022/10/23 00:24:22;;;;;;;2.47;2.28;;;10.70;99.90;;;;;;5050186;28;20249;-68
2022/10/23 00:26:49;;;;;;;2.15;1.90;;;10.70;99.90;;;;;;5052753;28;20201;-68
2022/10/23 00:29:16;;;;;;;4.50;1.65;;;10.60;99.90;;;;;;5053888;28;20304;-69
2022/10/23 00:31:44;;;;;;;2.17;1.98;;;10.60;99.90;;;;;;5053460;28;20221;-69
2022/10/23 00:34:11;;;;;;;2.00;1.90;;;10.60;99.90;;;;;;5053757;28;20380;-69
2022/10/23 00:36:39;;;;;;;2.00;1.80;;;10.60;99.90;;;;;;5053831;28;20206;-69
2022/10/23 00:39:06;;;;;;;1.85;1.67;;;10.60;99.90;;;;;;5053578;28;20738;-68
2022/10/23 00:41:33;;;;;;;2.10;1.90;;;10.50;99.90;;;;;;5053218;28;20683;-69
2022/10/23 00:44:04;;;;;;;2.63;2.28;;;10.50;99.90;;;;;;5053477;28;20228;-69
2022/10/23 00:46:32;;;;;;;3.25;1.90;;;10.50;99.90;;;;;;5053739;28;20205;-69
2022/10/23 00:49:01;;;;;;;2.03;1.85;;;10.50;99.90;;;;;;5053385;28;20197;-68
2022/10/23 00:51:33;;;;;;;3.25;1.95;;;10.50;99.90;;;;;;5053020;28;20201;-69
2022/10/23 00:54:02;;;;;;;3.60;1.77;;;10.50;99.90;;;;;;5053380;28;20229;-69
2022/10/23 00:56:30;;;;;;;5.53;2.25;;;10.50;99.90;;;;;;5053501;28;20206;-69
2022/10/23 00:58:56;;;;;;;2.08;1.95;;;10.60;99.90;;;;;;5053224;28;20217;-69
2022/10/23 01:01:24;;;;;;;2.42;2.22;;;10.60;99.90;;;;;;5052816;28;20201;-69
2022/10/23 01:03:51;;;;;;;2.45;2.20;;;10.60;99.90;;;;;;5053179;28;20226;-69
2022/10/23 01:06:33;;;;;;;2.47;1.95;;;10.60;99.90;;;;;;5053407;28;20204;-68
2022/10/23 01:09:07;;;;;;;2.10;1.90;;;10.60;99.90;;;;;;5053046;28;20198;-68
2022/10/23 01:11:41;;;;;;;2.47;1.80;;;10.60;99.90;;;;;;5052628;28;20217;-69
2022/10/23 01:14:17;;;;;;;2.05;1.63;;;10.50;99.90;;;;;;5052947;28;20229;-69
2022/10/23 01:16:52;;;;;;;2.13;1.48;;;10.50;99.90;;;;;;5053088;28;20204;-69
2022/10/23 01:19:25;;;;;;;1.75;1.65;;;10.50;99.90;;;;;;5053025;28;20590;-69
2022/10/23 01:22:05;;;;;;;1.80;1.70;;;10.50;99.90;;;;;;5052454;28;20683;-69
2022/10/23 01:24:43;;;;;;;1.90;1.75;;;10.50;99.90;;;;;;5052842;28;20221;-69
2022/10/23 01:27:25;;;;;;;2.13;1.83;;;10.50;99.90;;;;;;5052728;28;20208;-69
2022/10/23 01:29:59;;;;;;;2.05;1.80;;;10.60;99.90;;;;;;5052593;28;20229;-68
2022/10/23 01:32:34;;;;;;;2.17;1.85;;;10.60;99.90;;;;;;5052329;28;20206;-69
2022/10/23 01:35:04;;;;;;;4.35;1.88;;;10.50;99.90;;;;;;5052562;28;20221;-69
2022/10/23 01:37:37;;;;;;;1.77;1.67;;;10.50;99.90;;;;;;5051853;28;20229;-68
2022/10/23 01:40:09;;;;;;;2.22;1.83;;;10.50;99.90;;;;;;5052500;28;20595;-68
2022/10/23 01:42:41;;;;;;;3.22;1.95;;;10.50;99.90;;;;;;5052084;28;20636;-69
2022/10/23 01:45:14;;;;;;;1.92;1.77;;;10.50;99.90;;;;;;5052624;28;20742;-70
2022/10/23 01:47:43;;;;;;;4.50;1.90;;;10.50;99.90;;;;;;5052409;28;20202;-69
2022/10/23 01:50:12;;;;;;;2.45;1.80;;;10.50;99.90;;;;;;5052211;28;20202;-69
2022/10/23 01:52:39;;;;;;;2.05;1.85;;;10.40;99.90;;;;;;5051861;28;20209;-69
2022/10/23 01:55:09;;;;;;;2.08;1.75;;;10.40;99.90;;;;;;5052116;28;20233;-69
2022/10/23 01:57:40;;;;;;;1.83;1.73;;;10.40;99.90;;;;;;5052489;28;20594;-69
2022/10/23 02:00:11;;;;;;;2.38;1.80;;;10.40;99.90;;;;;;5052019;28;20246;-69
2022/10/23 02:02:40;;;;;;;2.80;1.98;;;10.40;99.90;;;;;;5051685;28;20632;-69
2022/10/23 02:05:11;;;;;;;3.72;1.85;;;10.40;99.90;;;;;;5051849;28;20712;-69
2022/10/23 02:07:38;;;;;;;1.70;1.60;;;10.40;99.90;;;;;;5052133;28;20668;-69
2022/10/23 02:10:07;;;;;;;2.10;1.70;;;10.40;99.90;;;;;;5051874;28;20201;-69
2022/10/23 02:12:42;;;;;;;4.43;1.75;;;10.30;99.90;;;;;;5051516;28;20213;-69
2022/10/23 02:15:13;;;;;;;4.72;2.25;;;10.30;99.90;;;;;;5051805;28;20626;-69
2022/10/23 02:17:48;;;;;;;1.67;1.42;;;10.30;99.90;;;;;;5052003;28;20245;-69
2022/10/23 02:20:21;;;;;;;1.90;1.50;;;10.30;99.90;;;;;;5052013;28;20201;-69
2022/10/23 02:22:55;;;;;;;3.03;2.00;;;10.20;99.90;;;;;;5051322;28;20202;-69
2022/10/23 02:25:30;;;;;;;3.17;1.92;;;10.20;99.90;;;;;;5051896;28;20234;-69
2022/10/23 02:28:02;;;;;;;1.77;1.67;;;10.20;99.90;;;;;;5051624;28;20288;-69
2022/10/23 02:30:31;;;;;;;2.28;1.75;;;10.20;99.90;;;;;;5074274;22;20242;-70
2022/10/23 02:33:00;;;;;;;1.52;1.42;;;10.20;99.90;;;;;;5011558;28;20211;-70
2022/10/23 02:35:27;;;;;;;1.83;1.60;;;10.10;99.90;;;;;;5011954;28;20725;-70
2022/10/23 02:37:54;;;;;;;1.95;1.75;;;10.10;99.90;;;;;;5012208;28;20233;-70
2022/10/23 02:40:22;;;;;;;1.52;1.42;;;10.10;99.90;;;;;;5011872;28;20701;-71
2022/10/23 02:42:54;;;;;;;2.50;1.67;;;10.10;99.90;;;;;;5011671;28;20558;-70
2022/10/23 02:45:29;;;;;;;3.88;2.15;;;10.10;99.90;;;;;;5011802;28;20736;-71
2022/10/23 02:48:04;;;;;;;1.70;1.60;;;10.10;99.90;;;;;;5011866;28;20202;-70
2022/10/23 02:50:38;;;;;;;2.20;1.92;;;10.10;99.90;;;;;;5010641;28;20678;-71
2022/10/23 02:53:10;;;;;;;2.22;1.90;;;10.10;99.90;;;;;;5011346;28;20199;-70
2022/10/23 02:55:50;;;;;;;2.30;1.85;;;10.10;99.90;;;;;;5011484;28;20219;-71
2022/10/23 02:58:26;;;;;;;2.20;1.70;;;10.10;99.90;;;;;;5011608;28;20317;-70
2022/10/23 03:00:59;;;;;;;1.50;1.30;;;10.10;99.90;;;;;;5011690;28;20202;-71
2022/10/23 03:03:31;;;;;;;1.90;1.80;;;10.10;99.90;;;;;;5010793;28;20207;-70
2022/10/23 03:05:58;;;;;;;2.03;1.92;;;10.20;99.90;;;;;;5011536;28;20214;-70
2022/10/23 03:08:25;;;;;;;2.20;2.00;;;10.10;99.90;;;;;;5011329;28;20295;-70
2022/10/23 03:10:51;;;;;;;1.88;1.73;;;10.10;99.90;;;;;;5011451;28;20569;-70
2022/10/23 03:13:18;;;;;;;2.35;1.55;;;10.10;99.90;;;;;;5010745;28;20677;-70
2022/10/23 03:15:45;;;;;;;4.30;1.85;;;10.10;99.90;;;;;;5011390;28;20399;-70
2022/10/23 03:18:13;;;;;;;1.73;1.48;;;10.10;99.90;;;;;;5011333;28;20246;-70
2022/10/23 03:20:40;;;;;;;3.85;1.95;;;10.10;99.90;;;;;;5010887;28;20214;-70
2022/10/23 03:23:06;;;;;;;1.65;1.55;;;10.10;99.90;;;;;;5010840;28;20199;-70
2022/10/23 03:25:33;;;;;;;2.05;1.58;;;10.10;99.90;;;;;;5010924;28;20234;-70
2022/10/23 03:28:00;;;;;;;1.80;1.60;;;10.10;99.90;;;;;;5011390;28;20226;-70
2022/10/23 03:30:26;;;;;;;2.97;1.80;;;10.10;99.90;;;;;;5010924;28;20207;-70
2022/10/23 03:32:53;;;;;;;1.67;1.58;;;10.10;99.90;;;;;;5010674;28;20207;-70
2022/10/23 03:35:21;;;;;;;1.83;1.67;;;10.10;99.90;;;;;;5010994;28;20230;-70
2022/10/23 03:37:48;;;;;;;2.30;1.77;;;10.10;99.90;;;;;;5011010;28;20226;-70
2022/10/23 03:40:15;;;;;;;3.75;1.55;;;10.10;99.90;;;;;;5011155;28;20685;-70
2022/10/23 03:42:42;;;;;;;2.13;1.90;;;10.10;99.90;;;;;;5010311;28;20217;-70
2022/10/23 03:45:09;;;;;;;2.15;1.95;;;10.10;99.90;;;;;;5010887;28;20254;-70
2022/10/23 03:47:40;;;;;;;1.58;1.45;;;10.10;99.90;;;;;;5010753;28;20700;-69
2022/10/23 03:50:07;;;;;;;2.22;1.65;;;10.20;99.90;;;;;;5010937;28;20766;-70
2022/10/23 03:52:35;;;;;;;1.70;1.42;;;10.20;99.90;;;;;;5010144;28;20301;-69
2022/10/23 03:55:03;;;;;;;2.10;1.70;;;10.20;99.90;;;;;;5010904;28;20230;-69
2022/10/23 03:57:29;;;;;;;1.73;1.45;;;10.20;99.90;;;;;;5010594;28;20203;-70
2022/10/23 03:59:56;;;;;;;2.55;1.52;;;10.20;99.90;;;;;;5010742;28;20594;-70
2022/10/23 04:02:23;;;;;;;2.03;1.40;;;10.20;99.90;;;;;;5014103;28;20203;-70
2022/10/23 04:04:50;;;;;;;1.70;1.42;;;10.20;99.90;;;;;;5014401;28;20748;-69
2022/10/23 04:07:16;;;;;;;2.13;1.73;;;10.20;99.90;;;;;;5014900;28;20210;-69
2022/10/23 04:09:44;;;;;;;2.50;2.30;;;10.20;99.90;;;;;;5014747;28;20205;-70
2022/10/23 04:12:11;;;;;;;1.80;1.70;;;10.20;99.90;;;;;;5014127;28;20591;-69
2022/10/23 04:14:38;;;;;;;4.22;1.63;;;10.20;99.90;;;;;;5014661;28;20219;-69
2022/10/23 04:17:05;;;;;;;1.60;1.50;;;10.20;99.90;;;;;;5014883;28;20236;-70
2022/10/23 04:19:31;;;;;;;2.13;1.92;;;10.20;99.90;;;;;;5014609;28;20237;-70
2022/10/23 04:21:58;;;;;;;2.10;1.90;;;10.20;99.90;;;;;;5015047;28;20658;-70
2022/10/23 04:24:25;;;;;;;1.70;1.60;;;10.20;99.90;;;;;;5014598;28;20230;-69
2022/10/23 04:26:54;;;;;;;1.85;1.67;;;10.20;99.90;;;;;;5014435;28;20203;-70
2022/10/23 04:29:21;;;;;;;2.15;1.88;;;10.10;99.90;;;;;;5014097;28;20689;-70
2022/10/23 04:31:48;;;;;;;1.73;1.50;;;10.20;99.90;;;;;;5013891;28;20203;-70
2022/10/23 04:34:15;;;;;;;4.30;1.95;;;10.20;99.90;;;;;;5014402;28;20724;-70
2022/10/23 04:36:42;;;;;;;2.20;1.95;;;10.20;99.90;;;;;;5014414;28;20226;-70
2022/10/23 04:39:09;;;;;;;2.35;1.90;;;10.20;99.90;;;;;;5014114;28;20219;-69
2022/10/23 04:41:37;;;;;;;2.35;1.83;;;10.20;99.90;;;;;;5013643;28;20211;-69
2022/10/23 04:44:05;;;;;;;2.15;1.73;;;10.20;99.90;;;;;;5014005;28;20227;-69
2022/10/23 04:46:32;;;;;;;2.88;1.83;;;10.20;99.90;;;;;;5013936;28;20206;-69
2022/10/23 04:48:59;;;;;;;2.80;2.20;;;10.30;99.90;;;;;;5013991;28;20217;-70
2022/10/23 04:51:25;;;;;;;4.68;2.55;;;10.30;99.90;;;;;;5013257;28;20597;-70
2022/10/23 04:53:52;;;;;;;2.45;1.98;;;10.30;99.90;;;;;;5013931;28;20231;-70
2022/10/23 04:56:19;;;;;;;1.77;1.65;;;10.30;99.90;;;;;;5013631;28;20206;-70
2022/10/23 04:58:46;;;;;;;2.45;1.80;;;10.30;99.90;;;;;;5013853;28;20601;-69
2022/10/23 05:01:14;;;;;;;2.28;1.95;;;10.30;99.90;;;;;;5013454;28;20214;-69
2022/10/23 05:03:40;;;;;;;4.50;2.25;;;10.30;99.90;;;;;;5013754;28;20199;-69
2022/10/23 05:06:07;;;;;;;3.20;1.92;;;10.30;99.90;;;;;;5013551;28;20717;-69
2022/10/23 05:08:35;;;;;;;2.47;2.28;;;10.30;99.90;;;;;;5013617;28;20210;-69
2022/10/23 05:11:02;;;;;;;1.80;1.70;;;10.40;99.90;;;;;;5013515;28;20247;-69
2022/10/23 05:13:28;;;;;;;3.15;2.35;;;10.40;99.90;;;;;;5011999;28;20214;-70
2022/10/23 05:15:58;;;;;;;3.38;1.77;;;10.40;99.90;;;;;;5013443;28;20214;-70
2022/10/23 05:18:30;;;;;;;1.90;1.70;;;10.40;99.90;;;;;;5013453;28;20214;-70
2022/10/23 05:21:01;;;;;;;2.92;2.15;;;10.40;99.90;;;;;;5013299;28;20202;-70
2022/10/23 05:23:31;;;;;;;2.42;1.98;;;10.40;99.90;;;;;;5013133;28;20203;-70
2022/10/23 05:25:58;;;;;;;1.70;1.60;;;10.40;99.90;;;;;;5013330;28;20210;-70
2022/10/23 05:28:25;;;;;;;2.33;1.85;;;10.40;99.90;;;;;;5012988;28;20203;-69
2022/10/23 05:30:52;;;;;;;3.20;2.05;;;10.40;99.90;;;;;;5013225;28;20218;-70
2022/10/23 05:33:19;;;;;;;2.40;2.20;;;10.40;99.90;;;;;;5012645;28;20593;-70
2022/10/23 05:35:47;;;;;;;2.30;2.10;;;10.40;99.90;;;;;;5013121;28;20239;-70
2022/10/23 05:38:15;;;;;;;2.83;2.50;;;10.40;99.90;;;;;;5012901;28;20686;-69
2022/10/23 05:40:42;;;;;;;3.33;2.00;;;10.40;99.90;;;;;;5012936;28;20602;-70
2022/10/23 05:43:08;;;;;;;2.55;2.05;;;10.40;99.90;;;;;;5012331;28;20558;-70
2022/10/23 05:45:35;;;;;;;3.70;2.35;;;10.40;99.90;;;;;;5013079;28;20486;-69
2022/10/23 05:48:02;;;;;;;3.17;1.75;;;10.40;99.90;;;;;;5013005;28;20574;-70
2022/10/23 05:50:28;;;;;;;1.80;1.70;;;10.40;99.90;;;;;;5012664;28;20203;-70
2022/10/23 05:52:56;;;;;;;2.25;2.05;;;10.40;99.90;;;;;;5012389;28;20667;-70
2022/10/23 05:55:25;;;;;;;2.10;1.90;;;10.40;99.90;;;;;;5012723;28;20231;-71
2022/10/23 05:57:52;;;;;;;1.90;1.70;;;10.40;99.90;;;;;;5012823;28;20206;-71
2022/10/23 06:00:18;;;;;;;2.42;2.20;;;10.40;99.90;;;;;;5012418;28;20222;-70
2022/10/23 06:02:45;;;;;;;2.10;1.90;;;10.40;99.90;;;;;;5012205;28;20689;-71
2022/10/23 06:05:12;;;;;;;5.45;2.20;;;10.40;99.90;;;;;;5012392;28;20234;-70
2022/10/23 06:07:39;;;;;;;3.30;1.70;;;10.40;99.90;;;;;;5012617;28;20203;-70
2022/10/23 06:10:07;;;;;;;1.70;1.60;;;10.40;99.90;;;;;;5012488;28;20216;-70
2022/10/23 06:12:34;;;;;;;2.28;1.70;;;10.40;99.90;;;;;;5011864;28;20207;-70
2022/10/23 06:15:01;;;;;;;3.97;1.92;;;10.40;99.90;;;;;;5012364;28;20230;-70
2022/10/23 06:17:28;;;;;;;2.15;1.85;;;10.40;99.90;;;;;;5012109;28;20210;-70
2022/10/23 06:19:59;;;;;;;1.77;1.67;;;10.50;99.90;;;;;;5012466;28;20219;-70
2022/10/23 06:22:26;;;;;;;3.92;2.25;;;10.40;99.90;;;;;;5011481;28;20282;-69
2022/10/23 06:24:53;;;;;;;2.08;1.75;;;10.50;99.90;;;;;;5011739;28;20219;-70
2022/10/23 06:27:22;;;;;;;2.90;1.83;;;10.50;99.90;;;;;;5011913;28;20203;-70
2022/10/23 06:29:48;;;;;;;2.25;2.05;;;10.50;99.90;;;;;;5011972;28;20210;-69
2022/10/23 06:32:15;;;;;;;2.30;1.70;;;10.50;99.90;;;;;;5010359;28;20195;-70
2022/10/23 06:34:42;;;;;;;2.75;2.13;;;10.50;99.90;;;;;;5012018;28;20223;-70
2022/10/23 06:37:09;;;;;;;2.08;1.80;;;10.50;99.90;;;;;;5011770;28;20211;-70
2022/10/23 06:39:35;;;;;;;1.67;1.50;;;10.60;99.90;;;;;;5011655;28;20738;-70
2022/10/23 06:42:02;;;;;;;2.50;1.70;;;10.60;99.90;;;;;;5011341;28;20210;-70
2022/10/23 06:44:30;;;;;;;1.70;1.60;;;10.70;99.90;;;;;;5011519;28;20227;-70
2022/10/23 06:46:59;;;;;;;1.92;1.48;;;10.70;99.90;;;;;;5011726;28;20210;-69
2022/10/23 06:49:25;;;;;;;1.85;1.42;;;10.80;99.90;;;;;;5011449;28;20569;-69
2022/10/23 06:51:52;;;;;;;2.15;1.80;;;10.80;99.90;;;;;;5011190;28;20207;-70
2022/10/23 06:54:19;;;;;;;1.88;1.77;;;10.90;99.90;;;;;;5011246;28;20218;-70
2022/10/23 06:56:45;;;;;;;2.17;1.50;;;11.30;99.90;;;;;;5011663;28;20218;-70
2022/10/23 06:59:13;;;;;;;3.20;1.63;;;11.60;99.90;;;;;;5010949;28;20838;-69
2022/10/23 07:01:41;;;;;;;2.00;1.80;;;11.80;99.90;;;;;;5010562;28;20207;-69
2022/10/23 07:04:07;;;;;;;1.98;1.77;;;11.80;99.90;;;;;;5011144;28;20230;-69
2022/10/23 07:06:34;;;;;;;2.63;2.00;;;11.70;99.90;;;;;;5011445;28;20214;-68
2022/10/23 07:09:01;;;;;;;1.73;1.63;;;11.70;99.90;;;;;;5011180;28;20199;-69
2022/10/23 07:11:27;;;;;;;1.83;1.50;;;11.70;99.90;;;;;;5010634;28;20626;-69
2022/10/23 07:13:54;;;;;;;1.73;1.50;;;11.70;99.90;;;;;;5011169;28;20238;-68
2022/10/23 07:16:22;;;;;;;2.00;1.80;;;11.80;99.90;;;;;;5011184;28;20199;-68
2022/10/23 07:18:57;;;;;;;1.65;1.55;;;11.90;99.90;;;;;;5011282;28;20199;-68
2022/10/23 07:21:24;;;;;;;1.75;1.50;;;12.00;99.90;;;;;;5010527;28;20711;-68
2022/10/23 07:23:51;;;;;;;3.90;1.85;;;12.10;99.90;;;;;;5011094;28;20227;-68
2022/10/23 07:26:17;;;;;;;1.95;1.80;;;12.30;99.90;;;;;;5010899;28;20202;-68
2022/10/23 07:28:47;;;;;;;4.75;1.65;;;12.50;99.90;;;;;;5011017;28;20218;-69
2022/10/23 07:31:14;;;;;;;2.67;1.75;;;12.60;99.90;;;;;;5010376;28;20203;-67
2022/10/23 07:33:41;;;;;;;1.73;1.50;;;12.70;99.90;;;;;;5011127;28;20238;-69
2022/10/23 07:36:10;;;;;;;1.98;1.73;;;12.80;99.90;;;;;;5010253;28;20203;-68
2022/10/23 07:38:37;;;;;;;1.50;1.40;;;12.90;99.90;;;;;;5011019;28;20206;-68
2022/10/23 07:41:04;;;;;;;4.10;1.43;;;13.00;99.90;;;;;;5010810;28;20229;-68
2022/10/23 07:43:31;;;;;;;2.40;2.20;;;13.10;99.90;;;;;;5010409;28;20464;-69
2022/10/23 07:45:57;;;;;;;1.83;1.60;;;13.20;99.90;;;;;;5009558;28;20199;-69
2022/10/23 07:48:26;;;;;;;2.20;1.58;;;13.30;99.90;;;;;;5010090;28;20481;-69
2022/10/23 07:50:54;;;;;;;1.97;1.53;;;13.40;99.90;;;;;;5010260;28;20214;-69
2022/10/23 07:53:24;;;;;;;2.03;1.20;;;13.50;99.90;;;;;;5009780;28;20465;-69
2022/10/23 07:55:53;;;;;;;1.90;1.70;;;13.70;99.90;;;;;;5010707;28;20469;-69
2022/10/23 07:58:19;;;;;;;1.90;1.60;;;13.80;99.90;;;;;;5010271;28;20466;-69
2022/10/23 08:00:51;;;;;;;1.70;1.60;;;13.90;99.90;;;;;;5010194;28;21023;-69
2022/10/23 08:03:19;;;;;;;3.43;2.43;;;14.00;99.90;;;;;;5010124;28;20462;-69
2022/10/23 08:05:46;;;;;;;2.10;1.90;;;14.20;99.90;;;;;;5010198;28;20517;-69
2022/10/23 08:08:13;;;;;;;2.57;1.90;;;14.30;99.90;;;;;;5005829;28;20473;-67
2022/10/23 08:10:41;;;;;;;1.70;1.40;;;14.40;99.90;;;;;;5008030;28;20462;-67
2022/10/23 08:13:11;;;;;;;1.40;1.30;;;14.60;99.90;;;;;;5008563;28;20584;-69
2022/10/23 08:15:39;;;;;;;1.60;1.50;;;14.90;99.90;;;;;;5008591;28;20859;-67
2022/10/23 08:18:06;;;;;;;1.73;1.63;;;15.10;99.90;;;;;;5009249;28;20469;-67
2022/10/23 08:20:34;;;;;;;2.00;1.60;;;15.40;99.90;;;;;;5008332;28;20501;-67
2022/10/23 08:23:01;;;;;;;1.60;1.47;;;15.60;99.90;;;;;;5008238;28;20473;-67
2022/10/23 08:25:28;;;;;;;2.60;1.63;;;16.00;99.90;;;;;;5008520;28;20689;-67
2022/10/23 08:27:57;;;;;;;1.73;1.50;;;16.30;99.90;;;;;;5009080;28;20568;-67
2022/10/23 08:30:24;;;;;;;1.70;1.60;;;16.60;99.90;;;;;;5008218;28;20569;-69
2022/10/23 08:32:51;;;;;;;1.63;1.53;;;16.70;99.90;;;;;;5008284;28;20465;-67
2022/10/23 08:35:19;;;;;;;2.27;1.63;;;16.80;99.90;;;;;;5008937;28;20505;-67
2022/10/23 08:37:46;;;;;;;1.40;1.30;;;16.90;99.90;;;;;;5008503;28;20502;-69
2022/10/23 08:40:15;;;;;;;1.50;1.40;;;16.80;99.90;;;;;;5008602;28;20851;-67
2022/10/23 08:42:46;;;;;;;1.30;1.10;;;16.70;99.90;;;;;;5008364;28;20548;-67
2022/10/23 08:45:29;;;;;;;1.50;1.40;;;16.70;99.90;;;;;;5007856;28;20489;-70
2022/10/23 08:48:01;;;;;;;2.17;1.40;;;16.60;99.90;;;;;;5011873;28;20473;-66
2022/10/23 08:50:32;;;;;;;1.43;1.30;;;16.50;99.90;;;;;;5011906;28;20473;-69
2022/10/23 08:53:04;;;;;;;1.80;1.70;;;16.50;99.90;;;;;;5011605;28;20475;-67
2022/10/23 08:55:35;;;;;;;2.00;1.43;;;16.60;99.90;;;;;;5012118;28;20540;-70
2022/10/23 08:58:07;;;;;;;1.37;1.27;;;16.70;99.90;;;;;;5012145;28;20476;-68
2022/10/23 09:00:35;;;;;;;1.30;1.20;;;16.90;99.90;;;;;;5012138;28;20829;-67
2022/10/23 09:03:04;;;;;;;3.13;1.67;;;17.30;99.90;;;;;;5012970;28;20461;-68
2022/10/23 09:05:39;;;;;;;1.10;1.00;;;17.60;99.90;;;;;;5012570;28;20481;-68
2022/10/23 09:08:19;;;;;;;1.50;1.07;;;18.00;99.90;;;;;;5013022;28;20469;-68
2022/10/23 09:11:03;;;;;;;1.30;1.00;;;18.20;99.90;;;;;;5012334;28;20562;-67
2022/10/23 09:14:02;;;;;;;1.90;1.10;;;18.30;99.90;;;;;;5008048;28;20476;-68
2022/10/23 09:16:41;;;;;;;2.10;1.00;;;18.70;99.90;;;;;;5011667;28;20470;-68
2022/10/23 09:19:14;;;;;;;0.90;0.80;;;19.00;99.90;;;;;;5010830;28;20845;-68
2022/10/23 09:21:41;;;;;;;1.20;1.00;;;19.10;99.90;;;;;;5010805;28;20567;-68
2022/10/23 09:24:16;;;;;;;2.07;1.00;;;19.40;99.90;;;;;;5010485;28;20911;-68
2022/10/23 09:26:47;;;;;;;1.20;1.00;;;19.60;99.90;;;;;;5011730;28;20469;-68
2022/10/23 09:29:20;;;;;;;1.10;0.90;;;19.90;99.90;;;;;;5010244;28;20507;-68
2022/10/23 09:31:53;;;;;;;1.43;1.10;;;20.20;99.90;;;;;;5011220;28;20714;-69
2022/10/23 09:34:23;;;;;;;1.33;1.00;;;20.50;99.90;;;;;;5010745;28;21021;-67
2022/10/23 09:36:51;;;;;;;2.20;1.20;;;20.60;99.90;;;;;;5010128;28;20467;-67
2022/10/23 09:39:25;;;;;;;1.20;0.90;;;20.90;99.90;;;;;;5011713;28;20468;-67
2022/10/23 09:41:52;;;;;;;1.47;0.93;;;21.10;99.90;;;;;;5011221;28;20493;-66
2022/10/23 09:44:22;;;;;;;1.20;1.10;;;21.30;99.90;;;;;;4996485;28;20486;-67
2022/10/23 09:46:52;;;;;;;1.10;1.00;;;21.20;99.90;;;;;;5006679;28;20466;-66
2022/10/23 09:49:22;;;;;;;1.20;1.00;;;20.90;99.90;;;;;;5010448;28;20980;-66
2022/10/23 09:52:01;;;;;;;1.50;1.40;;;20.90;99.90;;;;;;5010488;28;20462;-66
2022/10/23 09:54:29;;;;;;;1.00;0.90;;;21.00;99.90;;;;;;5010036;28;20928;-65
2022/10/23 09:56:59;;;;;;;2.63;1.10;;;21.30;99.90;;;;;;5009057;28;20470;-67
2022/10/23 09:59:29;;;;;;;1.47;1.10;;;21.50;99.90;;;;;;5009921;28;20469;-67
2022/10/23 10:01:57;;;;;;;2.43;1.20;;;21.50;99.90;;;;;;5010591;28;20489;-69
2022/10/23 10:04:37;;;;;;;1.10;1.00;;;21.60;99.90;;;;;;5010452;28;21011;-68
2022/10/23 10:07:06;;;;;;;1.20;1.10;;;21.60;99.90;;;;;;5010185;28;20462;-66
2022/10/23 10:09:34;;;;;;;1.30;1.10;;;21.70;99.90;;;;;;4997257;28;20474;-68
2022/10/23 10:17:06;;;;;;;1.10;1.00;;;21.70;99.90;;;;;;5027683;28;20484;-69
2022/10/23 10:19:51;;;;;;;1.30;1.20;;;21.60;99.90;;;;;;5029851;28;20468;-68
2022/10/23 10:22:28;;;;;;;1.20;1.10;;;21.40;99.90;;;;;;5029666;28;20467;-68
2022/10/23 10:25:01;;;;;;;1.60;1.10;;;21.40;99.90;;;;;;5030430;28;20480;-68
2022/10/23 10:27:42;;;;;;;1.57;1.20;;;21.40;99.90;;;;;;5031018;28;20468;-69
2022/10/23 10:30:15;;;;;;;2.63;1.27;;;21.40;99.90;;;;;;5029543;28;20465;-68
2022/10/23 10:32:49;;;;;;;1.40;1.00;;;21.40;99.90;;;;;;5029866;28;20473;-68
2022/10/23 10:35:40;;;;;;;1.00;0.90;;;21.40;99.90;;;;;;5029949;28;20486;-68
2022/10/23 10:38:45;;;;;;;0.97;0.87;;;21.30;99.90;;;;;;5029367;28;20457;-68
2022/10/23 10:41:26;;;;;;;1.00;0.90;;;21.20;99.90;;;;;;5019103;28;21404;-69
2022/10/23 10:44:04;;;;;;;1.47;1.10;;;21.30;99.90;;;;;;5107693;22;20489;-66
2022/10/23 10:46:38;;;;;;;1.30;1.17;;;21.30;99.90;;;;;;5030543;28;20838;-66
2022/10/23 10:49:11;;;;;;;1.40;1.20;;;21.00;99.90;;;;;;5030307;28;20461;-66
2022/10/23 10:51:47;;;;;;;1.20;1.10;;;20.90;99.90;;;;;;5030636;28;20979;-66
2022/10/23 10:54:24;;;;;;;2.13;1.30;;;20.90;99.90;;;;;;5030628;28;20712;-66
2022/10/23 10:56:51;;;;;;;1.10;1.00;;;20.80;99.90;;;;;;5027267;28;20465;-66
2022/10/23 10:59:23;;;;;;;1.30;1.10;;;20.60;99.90;;;;;;5028917;28;20851;-67
2022/10/23 11:01:55;;;;;;;1.30;1.13;;;20.40;99.90;;;;;;5029631;28;20486;-67
2022/10/23 11:04:31;;;;;;;1.23;1.10;;;20.40;99.90;;;;;;5030196;28;20481;-67
2022/10/23 11:07:05;;;;;;;1.40;1.07;;;20.40;99.90;;;;;;5030114;28;20949;-67
2022/10/23 11:09:32;;;;;;;1.00;0.90;;;20.50;99.90;;;;;;5030614;28;20468;-66
2022/10/23 11:11:58;;;;;;;1.30;1.20;;;20.60;99.90;;;;;;5029174;28;20457;-66
2022/10/23 11:14:28;;;;;;;1.47;1.20;;;20.50;99.90;;;;;;5030360;28;20987;-67
2022/10/23 11:17:03;;;;;;;2.30;1.57;;;20.50;99.90;;;;;;5030016;28;20458;-67
2022/10/23 11:19:35;;;;;;;2.87;1.70;;;20.40;99.90;;;;;;5030746;28;20971;-67
2022/10/23 11:22:10;;;;;;;2.73;1.40;;;20.20;99.90;;;;;;5025256;28;21038;-69
2022/10/23 11:24:58;;;;;;;1.90;1.70;;;20.00;99.90;;;;;;5029980;28;20486;-67
2022/10/23 11:27:50;;;;;;;1.20;1.10;;;20.00;99.90;;;;;;5029774;28;20495;-67
2022/10/23 11:30:24;;;;;;;1.20;1.10;;;19.90;99.90;;;;;;5019301;28;20465;-66
2022/10/23 11:33:16;;;;;;;2.90;1.00;;;19.80;99.90;;;;;;5029274;28;20488;-66
2022/10/23 11:35:54;;;;;;;2.40;1.47;;;19.70;99.90;;;;;;5028984;28;20844;-65
2022/10/23 11:38:27;;;;;;;1.57;1.00;;;19.50;99.90;;;;;;5029171;28;20599;-66
2022/10/23 11:40:57;;;;;;;1.73;1.07;;;19.50;99.90;;;;;;5028987;28;20484;-67
2022/10/23 11:43:32;;;;;;;3.87;1.70;;;19.40;99.90;;;;;;5028392;28;20497;-66
2022/10/23 11:46:10;;;;;;;2.07;1.00;;;19.50;99.90;;;;;;5029146;28;20471;-66
2022/10/23 11:48:39;;;;;;;1.10;1.00;;;19.50;99.90;;;;;;5029589;28;20850;-67
2022/10/23 11:51:25;;;;;;;1.20;1.10;;;19.60;99.90;;;;;;5028767;28;20466;-66
2022/10/23 11:54:04;;;;;;;1.80;1.37;;;19.70;99.90;;;;;;5028706;28;20485;-68
2022/10/23 11:56:32;;;;;;;1.10;1.00;;;19.80;99.90;;;;;;5029141;28;20469;-66
2022/10/23 11:59:19;;;;;;;1.30;1.00;;;19.90;99.90;;;;;;5027570;28;20521;-66
2022/10/23 12:01:47;;;;;;;2.03;1.13;;;20.00;99.90;;;;;;5028404;28;20483;-66
2022/10/23 12:04:20;;;;;;;1.77;1.20;;;20.00;99.90;;;;;;5030921;28;20481;-65
2022/10/23 12:06:50;;;;;;;1.77;1.47;;;20.00;99.90;;;;;;5048221;28;20822;-67
2022/10/23 12:09:28;;;;;;;1.53;1.10;;;20.00;99.90;;;;;;5048628;28;20853;-67
2022/10/23 12:12:16;;;;;;;1.90;1.27;;;20.00;99.90;;;;;;5039783;28;20463;-67
2022/10/23 12:14:44;;;;;;;1.30;1.10;;;20.10;99.90;;;;;;5029187;28;20482;-66
2022/10/23 12:17:34;;;;;;;1.10;1.00;;;20.30;99.90;;;;;;5028846;28;20500;-66
2022/10/23 12:20:26;;;;;;;1.10;1.00;;;20.40;99.90;;;;;;5027049;28;20468;-66
2022/10/23 12:23:30;;;;;;;1.40;1.07;;;20.40;99.90;;;;;;5030795;28;20472;-66
2022/10/23 12:26:23;;;;;;;2.07;1.30;;;20.40;99.90;;;;;;5032627;28;21200;-66
2022/10/23 12:28:58;;;;;;;2.03;1.20;;;20.30;99.90;;;;;;5032333;28;20468;-67
2022/10/23 12:31:37;;;;;;;1.87;1.20;;;20.30;99.90;;;;;;5031643;28;20461;-66
2022/10/23 12:34:13;;;;;;;1.30;1.10;;;20.30;99.90;;;;;;5032238;28;20484;-66
2022/10/23 12:36:58;;;;;;;1.20;1.00;;;20.40;99.90;;;;;;5032446;28;20461;-66
2022/10/23 12:39:30;;;;;;;1.10;1.00;;;20.40;99.90;;;;;;5032610;28;20474;-66
2022/10/23 12:41:59;;;;;;;1.40;1.30;;;20.40;99.90;;;;;;5011636;28;20543;-66
2022/10/23 12:44:26;;;;;;;1.20;1.00;;;20.40;99.90;;;;;;5012477;28;20481;-67
2022/10/23 12:46:56;;;;;;;2.20;1.03;;;20.40;99.90;;;;;;5012421;28;20469;-67
2022/10/23 12:49:25;;;;;;;1.40;1.20;;;20.60;99.90;;;;;;5012668;28;21017;-66
2022/10/23 12:51:56;;;;;;;1.20;1.00;;;20.90;99.90;;;;;;5012029;28;20464;-66
2022/10/23 12:54:23;;;;;;;1.50;1.30;;;21.20;99.90;;;;;;5012605;28;20489;-66
2022/10/23 12:56:51;;;;;;;1.20;1.00;;;21.50;99.90;;;;;;5011304;28;20535;-66
2022/10/23 12:59:25;;;;;;;1.27;0.90;;;21.70;99.90;;;;;;5012266;28;20528;-67
2022/10/23 13:01:52;;;;;;;1.30;1.20;;;22.00;99.90;;;;;;5011778;28;20619;-66
2022/10/23 13:04:28;;;;;;;1.20;1.10;;;22.20;99.90;;;;;;5011866;28;21005;-66
2022/10/23 13:06:56;;;;;;;1.40;0.93;;;22.40;99.90;;;;;;5010327;28;20473;-66
2022/10/23 13:09:28;;;;;;;2.20;1.23;;;22.60;99.90;;;;;;5008323;28;20469;-65
2022/10/23 13:11:56;;;;;;;1.30;0.80;;;22.70;99.90;;;;;;5008030;28;20460;-66